Date,TemperatureHighF,TemperatureAvgF,TemperatureLowF,DewpointHighF,DewpointAvgF,DewpointLowF,HumidityHigh,HumidityAvg,HumidityLow,PressureMaxIn,PressureMinIn,WindSpeedMaxMPH,WindSpeedAvgMPH,GustSpeedMaxMPH,PrecipitationSumIn
2012-11-28,56.3,49.4,49.6,53.7,41.7,-99.9,98,90,87,29.92,29.88,6,-64,0,0.00
2012-11-29,60.3,52.5,49.1,54.6,50.4,48.6,98,93,69,29.95,29.79,9,3,0,1.35
2012-11-30,59.0,54.5,51.1,58.2,53.9,50.6,98,98,93,29.95,29.76,11,3,0,0.93
2012-12-1,54.3,51.1,48.4,53.7,50.6,47.9,98,98,98,30.14,29.65,18,3,0,2.33
2012-12-2,56.3,49.2,43.0,55.2,48.6,42.5,98,98,91,30.34,29.65,8,3,0,0.93
2012-12-3,58.1,49.8,44.2,57.3,49.2,43.7,98,98,95,30.38,29.96,6,1,0,0.25
2012-12-4,60.3,57.2,49.8,59.7,56.7,49.3,98,98,98,30.26,29.95,19,5,0,0.66
2012-12-5,55.9,48.2,41.0,55.3,47.3,40.5,98,97,84,30.44,30.27,7,1,0,0.16
2012-12-6,55.4,44.7,39.4,51.5,43.6,38.9,98,96,77,30.44,30.36,4,1,0,0.03
2012-12-7,51.4,46.1,42.8,50.9,45.6,42.3,98,98,98,30.38,30.27,3,0,0,0.51
2012-12-8,46.9,41.5,38.3,46.4,41.0,37.8,98,98,98,30.39,30.32,2,0,0,0.05
2012-12-9,53.4,47.3,40.1,52.8,46.8,39.6,98,98,98,30.42,30.36,4,0,0,0.00
2012-12-10,55.0,48.8,45.0,54.4,48.3,44.5,98,98,98,30.40,30.08,4,0,0,0.00
2012-12-11,49.1,45.4,39.9,48.6,44.9,39.4,98,98,98,30.07,29.63,7,1,0,0.44
2012-12-12,50.5,41.8,36.9,50.0,41.3,36.4,98,98,98,29.96,29.74,3,0,0,0.35
2012-12-13,53.2,40.6,32.7,51.7,40.0,32.2,98,98,92,30.00,29.79,4,0,0,0.02
2012-12-14,50.7,40.7,35.1,50.2,40.2,34.6,98,98,98,29.97,29.80,3,0,0,0.37
2012-12-15,49.8,40.3,32.7,49.3,39.8,32.2,98,98,98,29.92,29.65,8,1,0,0.36
2012-12-16,54.3,49.4,41.7,53.7,48.9,41.2,98,98,98,29.87,29.37,20,8,0,0.87
2012-12-17,49.5,42.2,34.5,49.0,41.4,34.0,98,97,78,30.06,29.56,14,4,0,0.87
2012-12-18,45.1,35.7,31.1,44.6,35.2,30.6,98,98,98,30.11,30.04,6,1,0,0.39
2012-12-19,51.3,42.5,33.4,50.8,42.0,32.9,98,98,98,30.05,29.65,7,3,0,0.08
2012-12-20,44.6,38.7,34.9,44.1,38.2,34.4,98,98,98,29.77,29.59,17,2,0,2.11
2012-12-21,44.1,41.8,35.8,43.6,41.3,35.3,98,98,98,29.72,29.53,8,2,0,1.08
2012-12-22,45.5,41.2,39.6,45.0,40.7,39.1,98,98,98,29.80,29.51,10,3,0,1.60
2012-12-23,47.7,41.2,37.0,47.2,40.7,36.5,98,98,98,30.03,29.59,5,1,0,1.70
2012-12-24,50.7,41.6,36.0,50.2,41.1,35.5,98,98,98,30.23,29.96,5,1,0,0.36
2012-12-25,51.6,45.6,40.8,51.1,45.1,40.3,98,98,98,29.94,29.63,7,2,0,0.81
2012-12-26,48.4,43.8,40.8,47.9,43.3,40.3,98,98,98,30.13,29.72,6,1,0,1.17
2012-12-27,51.1,43.6,38.7,50.6,43.1,38.2,98,98,98,30.21,30.12,3,0,0,0.17
2012-12-28,46.0,41.4,39.4,45.5,40.9,38.9,98,98,98,30.14,30.05,3,0,0,0.20
2012-12-29,51.1,39.1,32.9,50.6,38.6,32.4,98,98,98,30.20,30.10,3,0,0,0.01
2012-12-30,52.9,37.2,30.0,49.9,36.1,29.5,98,96,77,30.25,30.15,5,1,0,0.01
2012-12-31,46.0,37.8,28.9,45.5,37.3,28.4,98,98,98,30.30,30.18,3,0,0,0.06
2013-1-1,57.0,39.4,31.1,50.9,38.0,30.6,98,95,68,30.31,30.17,4,1,0,0.01